sensor_id;sensor_type;location;lat;lon;timestamp;P1;durP1;ratioP1;P2;durP2;ratioP2
6374;SDS011;35400;45.472;-122.822;2023-03-23T00:02:04;2.40;;;2.20;;
6374;SDS011;35400;45.472;-122.822;2023-03-23T00:04:30;3.87;;;2.47;;
6374;SDS011;35400;45.472;-122.822;2023-03-23T00:06:57;3.43;;;2.23;;
6374;SDS011;35400;45.472;-122.822;2023-03-23T00:09:28;3.87;;;1.93;;
6374;SDS011;35400;45.472;-122.822;2023-03-23T00:12:00;3.50;;;1.80;;
6374;SDS011;35400;45.472;-122.822;2023-03-23T00:14:31;3.97;;;1.80;;
6374;SDS011;35400;45.472;-122.822;2023-03-23T00:17:08;2.03;;;1.83;;
6374;SDS011;35400;45.472;-122.822;2023-03-23T00:19:37;4.27;;;1.27;;
6374;SDS011;35400;45.472;-122.822;2023-03-23T00:22:22;2.60;;;1.53;;
6374;SDS011;35400;45.472;-122.822;2023-03-23T00:24:50;1.87;;;1.67;;
6374;SDS011;35400;45.472;-122.822;2023-03-23T00:27:18;1.50;;;1.40;;
6374;SDS011;35400;45.472;-122.822;2023-03-23T00:29:50;3.60;;;1.60;;
6374;SDS011;35400;45.472;-122.822;2023-03-23T00:32:21;1.80;;;1.40;;
6374;SDS011;35400;45.472;-122.822;2023-03-23T00:34:53;2.67;;;1.73;;
6374;SDS011;35400;45.472;-122.822;2023-03-23T00:37:21;1.87;;;1.50;;
6374;SDS011;35400;45.472;-122.822;2023-03-23T00:39:50;1.60;;;1.50;;
6374;SDS011;35400;45.472;-122.822;2023-03-23T00:42:17;3.23;;;1.50;;
6374;SDS011;35400;45.472;-122.822;2023-03-23T00:44:44;2.73;;;1.97;;
6374;SDS011;35400;45.472;-122.822;2023-03-23T00:47:11;1.77;;;1.67;;
6374;SDS011;35400;45.472;-122.822;2023-03-23T00:49:38;1.90;;;1.50;;
6374;SDS011;35400;45.472;-122.822;2023-03-23T00:52:07;2.73;;;1.70;;
6374;SDS011;35400;45.472;-122.822;2023-03-23T00:54:36;2.67;;;1.60;;
6374;SDS011;35400;45.472;-122.822;2023-03-23T00:57:03;3.33;;;1.57;;
6374;SDS011;35400;45.472;-122.822;2023-03-23T00:59:32;3.27;;;1.90;;
6374;SDS011;35400;45.472;-122.822;2023-03-23T01:01:58;4.23;;;2.17;;
6374;SDS011;35400;45.472;-122.822;2023-03-23T01:04:25;1.93;;;1.40;;
6374;SDS011;35400;45.472;-122.822;2023-03-23T01:06:54;3.03;;;1.97;;
6374;SDS011;35400;45.472;-122.822;2023-03-23T01:09:22;5.77;;;2.10;;
6374;SDS011;35400;45.472;-122.822;2023-03-23T01:11:49;3.60;;;1.93;;
6374;SDS011;35400;45.472;-122.822;2023-03-23T01:14:17;3.43;;;2.20;;
6374;SDS011;35400;45.472;-122.822;2023-03-23T01:16:49;4.60;;;2.33;;
6374;SDS011;35400;45.472;-122.822;2023-03-23T01:19:16;4.07;;;2.80;;
6374;SDS011;35400;45.472;-122.822;2023-03-23T01:21:42;3.30;;;2.93;;
6374;SDS011;35400;45.472;-122.822;2023-03-23T01:24:10;4.03;;;2.77;;
6374;SDS011;35400;45.472;-122.822;2023-03-23T01:26:37;4.03;;;2.27;;
6374;SDS011;35400;45.472;-122.822;2023-03-23T01:29:04;3.67;;;2.30;;
6374;SDS011;35400;45.472;-122.822;2023-03-23T01:31:31;4.10;;;2.53;;
6374;SDS011;35400;45.472;-122.822;2023-03-23T01:33:57;5.57;;;2.63;;
6374;SDS011;35400;45.472;-122.822;2023-03-23T01:36:26;4.67;;;2.40;;
6374;SDS011;35400;45.472;-122.822;2023-03-23T01:39:02;3.97;;;2.23;;
6374;SDS011;35400;45.472;-122.822;2023-03-23T01:41:32;3.43;;;2.23;;
6374;SDS011;35400;45.472;-122.822;2023-03-23T01:44:59;2.67;;;1.90;;
6374;SDS011;35400;45.472;-122.822;2023-03-23T01:47:01;5.67;;;2.43;;
6374;SDS011;35400;45.472;-122.822;2023-03-23T01:49:32;5.77;;;2.70;;
6374;SDS011;35400;45.472;-122.822;2023-03-23T01:52:12;4.07;;;2.40;;
6374;SDS011;35400;45.472;-122.822;2023-03-23T01:54:45;2.50;;;2.03;;
6374;SDS011;35400;45.472;-122.822;2023-03-23T01:57:17;3.80;;;2.30;;
6374;SDS011;35400;45.472;-122.822;2023-03-23T01:59:47;6.53;;;2.80;;
6374;SDS011;35400;45.472;-122.822;2023-03-23T02:02:21;3.90;;;2.30;;
6374;SDS011;35400;45.472;-122.822;2023-03-23T02:04:49;4.27;;;1.83;;
6374;SDS011;35400;45.472;-122.822;2023-03-23T02:07:17;5.30;;;2.40;;
6374;SDS011;35400;45.472;-122.822;2023-03-23T02:09:49;7.67;;;3.00;;
6374;SDS011;35400;45.472;-122.822;2023-03-23T02:12:17;3.77;;;2.60;;
6374;SDS011;35400;45.472;-122.822;2023-03-23T02:14:46;3.13;;;1.83;;
6374;SDS011;35400;45.472;-122.822;2023-03-23T02:29:17;3.57;;;2.33;;
6374;SDS011;35400;45.472;-122.822;2023-03-23T02:35:17;6.73;;;2.50;;
6374;SDS011;35400;45.472;-122.822;2023-03-23T02:37:33;4.77;;;2.40;;
6374;SDS011;35400;45.472;-122.822;2023-03-23T02:40:12;5.03;;;2.27;;
6374;SDS011;35400;45.472;-122.822;2023-03-23T02:42:51;5.37;;;2.83;;
6374;SDS011;35400;45.472;-122.822;2023-03-23T02:45:20;3.50;;;2.03;;
6374;SDS011;35400;45.472;-122.822;2023-03-23T02:47:51;3.50;;;2.10;;
6374;SDS011;35400;45.472;-122.822;2023-03-23T02:50:19;4.23;;;2.60;;
6374;SDS011;35400;45.472;-122.822;2023-03-23T02:52:50;3.57;;;1.97;;
6374;SDS011;35400;45.472;-122.822;2023-03-23T02:55:20;3.20;;;2.03;;
6374;SDS011;35400;45.472;-122.822;2023-03-23T02:57:52;4.70;;;2.27;;
6374;SDS011;35400;45.472;-122.822;2023-03-23T03:00:19;3.70;;;2.07;;
6374;SDS011;35400;45.472;-122.822;2023-03-23T03:02:51;5.77;;;2.30;;
6374;SDS011;35400;45.472;-122.822;2023-03-23T03:05:37;3.13;;;2.00;;
6374;SDS011;35400;45.472;-122.822;2023-03-23T03:11:16;3.17;;;2.00;;
6374;SDS011;35400;45.472;-122.822;2023-03-23T03:13:48;2.77;;;1.77;;
6374;SDS011;35400;45.472;-122.822;2023-03-23T03:16:23;4.43;;;2.10;;
6374;SDS011;35400;45.472;-122.822;2023-03-23T03:21:30;3.67;;;2.53;;
6374;SDS011;35400;45.472;-122.822;2023-03-23T03:24:03;3.47;;;1.97;;
6374;SDS011;35400;45.472;-122.822;2023-03-23T03:26:41;3.37;;;2.03;;
6374;SDS011;35400;45.472;-122.822;2023-03-23T03:29:35;3.50;;;2.10;;
6374;SDS011;35400;45.472;-122.822;2023-03-23T03:32:08;2.47;;;1.57;;
6374;SDS011;35400;45.472;-122.822;2023-03-23T03:34:40;3.87;;;2.00;;
6374;SDS011;35400;45.472;-122.822;2023-03-23T03:37:08;4.83;;;2.20;;
6374;SDS011;35400;45.472;-122.822;2023-03-23T03:39:38;3.83;;;2.50;;
6374;SDS011;35400;45.472;-122.822;2023-03-23T03:42:05;5.23;;;2.00;;
6374;SDS011;35400;45.472;-122.822;2023-03-23T03:44:33;3.17;;;2.00;;
6374;SDS011;35400;45.472;-122.822;2023-03-23T03:47:00;4.27;;;2.40;;
6374;SDS011;35400;45.472;-122.822;2023-03-23T03:49:27;5.83;;;2.30;;
6374;SDS011;35400;45.472;-122.822;2023-03-23T03:51:54;4.63;;;2.40;;
6374;SDS011;35400;45.472;-122.822;2023-03-23T03:54:26;3.90;;;1.73;;
6374;SDS011;35400;45.472;-122.822;2023-03-23T03:56:52;4.70;;;2.10;;
6374;SDS011;35400;45.472;-122.822;2023-03-23T03:59:41;3.57;;;2.13;;
6374;SDS011;35400;45.472;-122.822;2023-03-23T04:02:12;3.10;;;2.13;;
6374;SDS011;35400;45.472;-122.822;2023-03-23T04:04:42;3.77;;;1.80;;
6374;SDS011;35400;45.472;-122.822;2023-03-23T04:07:09;3.47;;;1.97;;
6374;SDS011;35400;45.472;-122.822;2023-03-23T04:09:43;3.40;;;1.83;;
6374;SDS011;35400;45.472;-122.822;2023-03-23T04:12:14;3.87;;;2.20;;
6374;SDS011;35400;45.472;-122.822;2023-03-23T04:14:57;4.10;;;2.13;;
6374;SDS011;35400;45.472;-122.822;2023-03-23T04:17:34;4.77;;;2.00;;
6374;SDS011;35400;45.472;-122.822;2023-03-23T04:20:03;3.30;;;1.67;;
6374;SDS011;35400;45.472;-122.822;2023-03-23T04:22:57;2.40;;;1.53;;
6374;SDS011;35400;45.472;-122.822;2023-03-23T04:25:26;2.57;;;1.80;;
6374;SDS011;35400;45.472;-122.822;2023-03-23T04:27:54;2.73;;;1.80;;
6374;SDS011;35400;45.472;-122.822;2023-03-23T04:30:29;5.33;;;2.20;;
6374;SDS011;35400;45.472;-122.822;2023-03-23T04:33:03;5.17;;;2.77;;
6374;SDS011;35400;45.472;-122.822;2023-03-23T04:35:30;5.53;;;2.57;;
6374;SDS011;35400;45.472;-122.822;2023-03-23T04:38:13;2.47;;;2.00;;
6374;SDS011;35400;45.472;-122.822;2023-03-23T04:40:44;3.30;;;1.70;;
6374;SDS011;35400;45.472;-122.822;2023-03-23T04:43:24;3.23;;;2.03;;
6374;SDS011;35400;45.472;-122.822;2023-03-23T04:46:15;4.10;;;1.80;;
6374;SDS011;35400;45.472;-122.822;2023-03-23T04:48:45;3.63;;;1.83;;
6374;SDS011;35400;45.472;-122.822;2023-03-23T04:51:19;2.67;;;1.63;;
6374;SDS011;35400;45.472;-122.822;2023-03-23T04:53:49;6.57;;;2.60;;
6374;SDS011;35400;45.472;-122.822;2023-03-23T04:56:16;2.27;;;1.53;;
6374;SDS011;35400;45.472;-122.822;2023-03-23T04:58:45;1.80;;;1.60;;
6374;SDS011;35400;45.472;-122.822;2023-03-23T05:01:31;2.43;;;1.63;;
6374;SDS011;35400;45.472;-122.822;2023-03-23T05:04:28;6.10;;;1.80;;
6374;SDS011;35400;45.472;-122.822;2023-03-23T05:07:03;2.57;;;1.90;;
6374;SDS011;35400;45.472;-122.822;2023-03-23T05:09:36;4.43;;;1.80;;
6374;SDS011;35400;45.472;-122.822;2023-03-23T05:12:08;2.87;;;1.70;;
6374;SDS011;35400;45.472;-122.822;2023-03-23T05:14:46;2.17;;;1.50;;
6374;SDS011;35400;45.472;-122.822;2023-03-23T05:17:16;3.33;;;1.73;;
6374;SDS011;35400;45.472;-122.822;2023-03-23T05:19:47;4.17;;;1.60;;
6374;SDS011;35400;45.472;-122.822;2023-03-23T05:22:41;3.93;;;1.97;;
6374;SDS011;35400;45.472;-122.822;2023-03-23T05:25:13;2.57;;;1.50;;
6374;SDS011;35400;45.472;-122.822;2023-03-23T05:27:45;3.00;;;1.57;;
6374;SDS011;35400;45.472;-122.822;2023-03-23T05:30:48;2.90;;;1.70;;
6374;SDS011;35400;45.472;-122.822;2023-03-23T05:33:16;3.60;;;2.00;;
6374;SDS011;35400;45.472;-122.822;2023-03-23T05:35:53;3.07;;;1.70;;
6374;SDS011;35400;45.472;-122.822;2023-03-23T05:38:26;4.37;;;2.00;;
6374;SDS011;35400;45.472;-122.822;2023-03-23T05:40:57;4.30;;;2.13;;
6374;SDS011;35400;45.472;-122.822;2023-03-23T05:43:33;2.97;;;1.77;;
6374;SDS011;35400;45.472;-122.822;2023-03-23T05:46:18;3.03;;;1.73;;
6374;SDS011;35400;45.472;-122.822;2023-03-23T05:48:47;2.83;;;1.60;;
6374;SDS011;35400;45.472;-122.822;2023-03-23T05:51:16;4.33;;;1.87;;
6374;SDS011;35400;45.472;-122.822;2023-03-23T05:53:46;2.60;;;1.40;;
6374;SDS011;35400;45.472;-122.822;2023-03-23T05:56:15;2.47;;;1.70;;
6374;SDS011;35400;45.472;-122.822;2023-03-23T05:58:54;2.37;;;1.40;;
6374;SDS011;35400;45.472;-122.822;2023-03-23T06:01:21;2.93;;;1.83;;
6374;SDS011;35400;45.472;-122.822;2023-03-23T06:03:50;3.33;;;1.83;;
6374;SDS011;35400;45.472;-122.822;2023-03-23T06:06:27;2.60;;;1.87;;
6374;SDS011;35400;45.472;-122.822;2023-03-23T06:09:04;2.10;;;1.30;;
6374;SDS011;35400;45.472;-122.822;2023-03-23T06:11:42;2.10;;;1.50;;
6374;SDS011;35400;45.472;-122.822;2023-03-23T06:14:36;1.40;;;1.30;;
6374;SDS011;35400;45.472;-122.822;2023-03-23T06:17:05;1.87;;;1.10;;
6374;SDS011;35400;45.472;-122.822;2023-03-23T06:19:32;1.67;;;1.30;;
6374;SDS011;35400;45.472;-122.822;2023-03-23T06:22:10;2.53;;;1.33;;
6374;SDS011;35400;45.472;-122.822;2023-03-23T06:25:00;4.00;;;1.63;;
6374;SDS011;35400;45.472;-122.822;2023-03-23T06:27:34;4.30;;;1.47;;
6374;SDS011;35400;45.472;-122.822;2023-03-23T06:30:03;2.13;;;1.23;;
6374;SDS011;35400;45.472;-122.822;2023-03-23T06:32:32;3.10;;;1.43;;
6374;SDS011;35400;45.472;-122.822;2023-03-23T06:35:01;2.50;;;1.30;;
6374;SDS011;35400;45.472;-122.822;2023-03-23T06:37:28;2.53;;;1.10;;
6374;SDS011;35400;45.472;-122.822;2023-03-23T06:40:24;3.70;;;1.13;;
6374;SDS011;35400;45.472;-122.822;2023-03-23T06:42:58;2.97;;;1.30;;
6374;SDS011;35400;45.472;-122.822;2023-03-23T06:45:44;1.37;;;1.00;;
6374;SDS011;35400;45.472;-122.822;2023-03-23T06:48:39;3.13;;;1.20;;
6374;SDS011;35400;45.472;-122.822;2023-03-23T06:51:10;1.20;;;1.10;;
6374;SDS011;35400;45.472;-122.822;2023-03-23T06:53:39;2.27;;;1.30;;
6374;SDS011;35400;45.472;-122.822;2023-03-23T06:56:10;3.47;;;1.00;;
6374;SDS011;35400;45.472;-122.822;2023-03-23T06:58:40;4.30;;;1.23;;
6374;SDS011;35400;45.472;-122.822;2023-03-23T07:01:08;2.70;;;1.23;;
6374;SDS011;35400;45.472;-122.822;2023-03-23T07:03:41;1.27;;;1.13;;
6374;SDS011;35400;45.472;-122.822;2023-03-23T07:06:11;1.00;;;0.90;;
6374;SDS011;35400;45.472;-122.822;2023-03-23T07:08:46;1.10;;;0.97;;
6374;SDS011;35400;45.472;-122.822;2023-03-23T07:11:18;1.63;;;0.90;;
6374;SDS011;35400;45.472;-122.822;2023-03-23T07:13:44;1.13;;;0.67;;
6374;SDS011;35400;45.472;-122.822;2023-03-23T07:16:12;1.30;;;0.70;;
6374;SDS011;35400;45.472;-122.822;2023-03-23T07:18:40;1.47;;;0.63;;
6374;SDS011;35400;45.472;-122.822;2023-03-23T07:21:07;1.17;;;0.60;;
6374;SDS011;35400;45.472;-122.822;2023-03-23T07:23:34;1.23;;;0.67;;
6374;SDS011;35400;45.472;-122.822;2023-03-23T07:26:08;0.53;;;0.53;;
6374;SDS011;35400;45.472;-122.822;2023-03-23T07:28:44;1.87;;;0.70;;
6374;SDS011;35400;45.472;-122.822;2023-03-23T07:31:30;0.57;;;0.53;;
6374;SDS011;35400;45.472;-122.822;2023-03-23T07:33:58;0.90;;;0.50;;
6374;SDS011;35400;45.472;-122.822;2023-03-23T07:36:35;1.13;;;0.53;;
6374;SDS011;35400;45.472;-122.822;2023-03-23T07:39:05;1.03;;;0.60;;
6374;SDS011;35400;45.472;-122.822;2023-03-23T07:41:33;1.30;;;0.50;;
6374;SDS011;35400;45.472;-122.822;2023-03-23T07:44:08;1.07;;;0.70;;
6374;SDS011;35400;45.472;-122.822;2023-03-23T07:46:36;1.10;;;0.60;;
6374;SDS011;35400;45.472;-122.822;2023-03-23T07:49:11;0.47;;;0.37;;
6374;SDS011;35400;45.472;-122.822;2023-03-23T07:51:44;3.00;;;0.67;;
6374;SDS011;35400;45.472;-122.822;2023-03-23T07:54:13;0.87;;;0.60;;
6374;SDS011;35400;45.472;-122.822;2023-03-23T07:56:53;0.97;;;0.43;;
6374;SDS011;35400;45.472;-122.822;2023-03-23T07:59:23;0.53;;;0.53;;
6374;SDS011;35400;45.472;-122.822;2023-03-23T08:01:50;0.80;;;0.50;;
6374;SDS011;35400;45.472;-122.822;2023-03-23T08:04:41;1.40;;;0.50;;
6374;SDS011;35400;45.472;-122.822;2023-03-23T08:07:30;0.73;;;0.60;;
6374;SDS011;35400;45.472;-122.822;2023-03-23T08:10:21;0.70;;;0.50;;
6374;SDS011;35400;45.472;-122.822;2023-03-23T08:13:03;1.17;;;0.30;;
6374;SDS011;35400;45.472;-122.822;2023-03-23T08:16:07;1.43;;;0.60;;
6374;SDS011;35400;45.472;-122.822;2023-03-23T08:19:13;0.40;;;0.40;;
6374;SDS011;35400;45.472;-122.822;2023-03-23T08:22:06;1.33;;;0.67;;
6374;SDS011;35400;45.472;-122.822;2023-03-23T08:25:13;0.50;;;0.50;;
6374;SDS011;35400;45.472;-122.822;2023-03-23T08:28:08;0.40;;;0.40;;
6374;SDS011;35400;45.472;-122.822;2023-03-23T08:30:53;0.50;;;0.50;;
6374;SDS011;35400;45.472;-122.822;2023-03-23T08:33:42;1.83;;;0.50;;
6374;SDS011;35400;45.472;-122.822;2023-03-23T08:36:31;1.90;;;0.60;;
6374;SDS011;35400;45.472;-122.822;2023-03-23T08:39:10;1.40;;;0.63;;
6374;SDS011;35400;45.472;-122.822;2023-03-23T08:41:58;2.97;;;0.63;;
6374;SDS011;35400;45.472;-122.822;2023-03-23T08:44:43;1.20;;;0.57;;
6374;SDS011;35400;45.472;-122.822;2023-03-23T08:47:43;1.33;;;1.10;;
6374;SDS011;35400;45.472;-122.822;2023-03-23T08:50:38;1.37;;;1.00;;
6374;SDS011;35400;45.472;-122.822;2023-03-23T08:53:26;1.00;;;0.90;;
6374;SDS011;35400;45.472;-122.822;2023-03-23T08:56:22;2.53;;;1.10;;
6374;SDS011;35400;45.472;-122.822;2023-03-23T08:59:07;1.10;;;0.90;;
6374;SDS011;35400;45.472;-122.822;2023-03-23T09:01:41;1.33;;;0.87;;
6374;SDS011;35400;45.472;-122.822;2023-03-23T09:04:35;1.87;;;1.10;;
6374;SDS011;35400;45.472;-122.822;2023-03-23T09:07:11;0.90;;;0.60;;
6374;SDS011;35400;45.472;-122.822;2023-03-23T09:09:40;2.10;;;0.90;;
6374;SDS011;35400;45.472;-122.822;2023-03-23T09:12:08;1.23;;;0.60;;
6374;SDS011;35400;45.472;-122.822;2023-03-23T09:14:36;1.37;;;0.87;;
6374;SDS011;35400;45.472;-122.822;2023-03-23T09:17:03;2.03;;;0.77;;
6374;SDS011;35400;45.472;-122.822;2023-03-23T09:19:32;1.87;;;0.67;;
6374;SDS011;35400;45.472;-122.822;2023-03-23T09:22:00;2.80;;;1.00;;
6374;SDS011;35400;45.472;-122.822;2023-03-23T09:24:28;3.03;;;0.73;;
6374;SDS011;35400;45.472;-122.822;2023-03-23T09:26:55;1.00;;;0.87;;
6374;SDS011;35400;45.472;-122.822;2023-03-23T09:29:24;1.97;;;0.80;;
6374;SDS011;35400;45.472;-122.822;2023-03-23T09:31:53;2.00;;;1.00;;
6374;SDS011;35400;45.472;-122.822;2023-03-23T09:34:21;2.60;;;0.80;;
6374;SDS011;35400;45.472;-122.822;2023-03-23T09:36:49;2.20;;;0.80;;
6374;SDS011;35400;45.472;-122.822;2023-03-23T09:39:17;2.27;;;1.23;;
6374;SDS011;35400;45.472;-122.822;2023-03-23T09:44:55;3.13;;;0.97;;
6374;SDS011;35400;45.472;-122.822;2023-03-23T09:48:33;1.77;;;1.17;;
6374;SDS011;35400;45.472;-122.822;2023-03-23T09:56:36;1.83;;;0.90;;
6374;SDS011;35400;45.472;-122.822;2023-03-23T10:02:38;2.40;;;0.97;;
6374;SDS011;35400;45.472;-122.822;2023-03-23T10:04:51;1.40;;;1.10;;
6374;SDS011;35400;45.472;-122.822;2023-03-23T10:07:24;3.93;;;1.00;;
6374;SDS011;35400;45.472;-122.822;2023-03-23T10:09:53;1.53;;;0.80;;
6374;SDS011;35400;45.472;-122.822;2023-03-23T10:15:29;2.70;;;0.90;;
6374;SDS011;35400;45.472;-122.822;2023-03-23T10:18:18;3.23;;;1.00;;
6374;SDS011;35400;45.472;-122.822;2023-03-23T10:20:57;2.50;;;1.10;;
6374;SDS011;35400;45.472;-122.822;2023-03-23T10:26:25;2.43;;;1.00;;
6374;SDS011;35400;45.472;-122.822;2023-03-23T10:28:57;1.10;;;0.70;;
6374;SDS011;35400;45.472;-122.822;2023-03-23T10:31:32;3.13;;;0.93;;
6374;SDS011;35400;45.472;-122.822;2023-03-23T10:34:49;1.67;;;1.03;;
6374;SDS011;35400;45.472;-122.822;2023-03-23T10:37:01;4.73;;;1.20;;
6374;SDS011;35400;45.472;-122.822;2023-03-23T10:39:37;3.00;;;1.30;;
6374;SDS011;35400;45.472;-122.822;2023-03-23T10:42:29;2.80;;;0.97;;
6374;SDS011;35400;45.472;-122.822;2023-03-23T10:44:59;2.87;;;1.20;;
6374;SDS011;35400;45.472;-122.822;2023-03-23T10:47:40;5.90;;;1.00;;
6374;SDS011;35400;45.472;-122.822;2023-03-23T10:50:12;2.33;;;1.13;;
6374;SDS011;35400;45.472;-122.822;2023-03-23T10:52:43;4.67;;;1.17;;
6374;SDS011;35400;45.472;-122.822;2023-03-23T10:55:15;4.33;;;0.97;;
6374;SDS011;35400;45.472;-122.822;2023-03-23T10:57:44;4.80;;;1.00;;
6374;SDS011;35400;45.472;-122.822;2023-03-23T11:00:18;3.67;;;1.37;;
6374;SDS011;35400;45.472;-122.822;2023-03-23T11:03:37;2.50;;;1.10;;
6374;SDS011;35400;45.472;-122.822;2023-03-23T11:05:45;1.37;;;1.20;;
6374;SDS011;35400;45.472;-122.822;2023-03-23T11:08:55;2.43;;;1.30;;
6374;SDS011;35400;45.472;-122.822;2023-03-23T11:11:30;1.80;;;0.87;;
6374;SDS011;35400;45.472;-122.822;2023-03-23T11:14:12;4.43;;;1.57;;
6374;SDS011;35400;45.472;-122.822;2023-03-23T11:16:53;5.03;;;1.00;;
6374;SDS011;35400;45.472;-122.822;2023-03-23T11:21:52;3.73;;;1.13;;
6374;SDS011;35400;45.472;-122.822;2023-03-23T11:24:42;4.07;;;1.20;;
6374;SDS011;35400;45.472;-122.822;2023-03-23T11:27:11;2.43;;;0.90;;
6374;SDS011;35400;45.472;-122.822;2023-03-23T11:29:44;2.30;;;1.00;;
6374;SDS011;35400;45.472;-122.822;2023-03-23T11:32:14;6.57;;;1.10;;
6374;SDS011;35400;45.472;-122.822;2023-03-23T11:34:43;4.47;;;1.23;;
6374;SDS011;35400;45.472;-122.822;2023-03-23T11:40:17;2.03;;;0.83;;
6374;SDS011;35400;45.472;-122.822;2023-03-23T11:45:22;2.10;;;0.97;;
6374;SDS011;35400;45.472;-122.822;2023-03-23T11:50:50;2.63;;;1.03;;
6374;SDS011;35400;45.472;-122.822;2023-03-23T11:53:28;2.43;;;0.93;;
6374;SDS011;35400;45.472;-122.822;2023-03-23T11:56:30;2.10;;;1.00;;
6374;SDS011;35400;45.472;-122.822;2023-03-23T11:59:02;2.13;;;1.10;;
6374;SDS011;35400;45.472;-122.822;2023-03-23T12:04:31;3.47;;;1.30;;
6374;SDS011;35400;45.472;-122.822;2023-03-23T12:38:16;6.27;;;1.53;;
6374;SDS011;35400;45.472;-122.822;2023-03-23T12:49:13;5.97;;;1.37;;
6374;SDS011;35400;45.472;-122.822;2023-03-23T12:52:04;3.17;;;1.30;;
6374;SDS011;35400;45.472;-122.822;2023-03-23T12:54:58;2.67;;;1.03;;
6374;SDS011;35400;45.472;-122.822;2023-03-23T12:58:05;2.63;;;1.10;;
6374;SDS011;35400;45.472;-122.822;2023-03-23T13:12:05;4.70;;;1.50;;
6374;SDS011;35400;45.472;-122.822;2023-03-23T13:17:53;4.47;;;1.33;;
6374;SDS011;35400;45.472;-122.822;2023-03-23T13:23:22;3.77;;;1.40;;
6374;SDS011;35400;45.472;-122.822;2023-03-23T13:26:00;4.63;;;1.60;;
6374;SDS011;35400;45.472;-122.822;2023-03-23T13:28:29;2.43;;;1.00;;
6374;SDS011;35400;45.472;-122.822;2023-03-23T13:31:42;6.23;;;1.87;;
6374;SDS011;35400;45.472;-122.822;2023-03-23T13:34:16;2.17;;;1.17;;
6374;SDS011;35400;45.472;-122.822;2023-03-23T13:39:27;4.40;;;1.20;;
6374;SDS011;35400;45.472;-122.822;2023-03-23T13:44:40;5.13;;;1.30;;
6374;SDS011;35400;45.472;-122.822;2023-03-23T13:49:54;2.37;;;1.00;;
6374;SDS011;35400;45.472;-122.822;2023-03-23T13:52:49;4.63;;;1.20;;
6374;SDS011;35400;45.472;-122.822;2023-03-23T13:55:21;4.77;;;1.30;;
6374;SDS011;35400;45.472;-122.822;2023-03-23T14:05:40;3.93;;;1.40;;
6374;SDS011;35400;45.472;-122.822;2023-03-23T14:13:09;3.20;;;1.30;;
6374;SDS011;35400;45.472;-122.822;2023-03-23T14:15:59;1.87;;;1.40;;
6374;SDS011;35400;45.472;-122.822;2023-03-23T14:18:38;4.37;;;1.50;;
6374;SDS011;35400;45.472;-122.822;2023-03-23T14:21:14;5.97;;;2.13;;
6374;SDS011;35400;45.472;-122.822;2023-03-23T14:23:42;1.87;;;1.37;;
6374;SDS011;35400;45.472;-122.822;2023-03-23T14:26:11;1.17;;;1.17;;
6374;SDS011;35400;45.472;-122.822;2023-03-23T14:28:43;4.03;;;1.43;;
6374;SDS011;35400;45.472;-122.822;2023-03-23T14:31:20;1.83;;;1.17;;
6374;SDS011;35400;45.472;-122.822;2023-03-23T14:33:49;3.93;;;1.50;;
6374;SDS011;35400;45.472;-122.822;2023-03-23T14:36:23;4.33;;;1.33;;
6374;SDS011;35400;45.472;-122.822;2023-03-23T14:39:04;4.57;;;1.80;;
6374;SDS011;35400;45.472;-122.822;2023-03-23T14:41:51;2.27;;;1.17;;
6374;SDS011;35400;45.472;-122.822;2023-03-23T14:44:30;3.53;;;1.50;;
6374;SDS011;35400;45.472;-122.822;2023-03-23T14:47:00;2.93;;;1.30;;
6374;SDS011;35400;45.472;-122.822;2023-03-23T14:49:31;2.30;;;1.30;;
6374;SDS011;35400;45.472;-122.822;2023-03-23T14:52:14;4.20;;;1.53;;
6374;SDS011;35400;45.472;-122.822;2023-03-23T14:54:42;3.17;;;1.13;;
6374;SDS011;35400;45.472;-122.822;2023-03-23T14:59:42;3.30;;;1.50;;
6374;SDS011;35400;45.472;-122.822;2023-03-23T15:02:33;4.17;;;1.30;;
6374;SDS011;35400;45.472;-122.822;2023-03-23T15:05:19;1.93;;;1.03;;
6374;SDS011;35400;45.472;-122.822;2023-03-23T15:07:54;2.90;;;1.33;;
6374;SDS011;35400;45.472;-122.822;2023-03-23T15:10:31;4.17;;;1.00;;
6374;SDS011;35400;45.472;-122.822;2023-03-23T15:12:59;3.33;;;1.10;;
6374;SDS011;35400;45.472;-122.822;2023-03-23T15:15:35;3.67;;;1.10;;
6374;SDS011;35400;45.472;-122.822;2023-03-23T15:18:03;2.60;;;1.37;;
6374;SDS011;35400;45.472;-122.822;2023-03-23T15:20:51;2.37;;;1.10;;
6374;SDS011;35400;45.472;-122.822;2023-03-23T15:23:26;2.43;;;1.53;;
6374;SDS011;35400;45.472;-122.822;2023-03-23T15:25:55;3.63;;;1.63;;
6374;SDS011;35400;45.472;-122.822;2023-03-23T15:28:30;2.83;;;1.60;;
6374;SDS011;35400;45.472;-122.822;2023-03-23T15:31:03;2.83;;;1.40;;
6374;SDS011;35400;45.472;-122.822;2023-03-23T15:33:35;2.03;;;1.10;;
6374;SDS011;35400;45.472;-122.822;2023-03-23T15:36:08;3.53;;;1.60;;
6374;SDS011;35400;45.472;-122.822;2023-03-23T15:38:42;3.27;;;1.43;;
6374;SDS011;35400;45.472;-122.822;2023-03-23T15:41:24;6.00;;;1.63;;
6374;SDS011;35400;45.472;-122.822;2023-03-23T15:43:56;3.07;;;1.67;;
6374;SDS011;35400;45.472;-122.822;2023-03-23T15:46:26;2.87;;;1.20;;
6374;SDS011;35400;45.472;-122.822;2023-03-23T15:51:21;3.60;;;1.40;;
6374;SDS011;35400;45.472;-122.822;2023-03-23T15:53:50;2.00;;;1.33;;
6374;SDS011;35400;45.472;-122.822;2023-03-23T15:56:18;3.13;;;1.10;;
6374;SDS011;35400;45.472;-122.822;2023-03-23T15:58:46;2.47;;;1.20;;
6374;SDS011;35400;45.472;-122.822;2023-03-23T16:01:14;2.20;;;0.97;;
6374;SDS011;35400;45.472;-122.822;2023-03-23T16:03:51;2.00;;;1.33;;
6374;SDS011;35400;45.472;-122.822;2023-03-23T16:06:21;1.10;;;1.00;;
6374;SDS011;35400;45.472;-122.822;2023-03-23T16:08:50;1.87;;;0.70;;
6374;SDS011;35400;45.472;-122.822;2023-03-23T16:11:18;1.67;;;1.17;;
6374;SDS011;35400;45.472;-122.822;2023-03-23T16:13:45;1.87;;;1.10;;
6374;SDS011;35400;45.472;-122.822;2023-03-23T16:16:16;3.30;;;1.10;;
6374;SDS011;35400;45.472;-122.822;2023-03-23T16:18:47;4.70;;;1.00;;
6374;SDS011;35400;45.472;-122.822;2023-03-23T16:21:14;1.20;;;1.03;;
6374;SDS011;35400;45.472;-122.822;2023-03-23T16:23:41;1.90;;;1.27;;
6374;SDS011;35400;45.472;-122.822;2023-03-23T16:26:11;2.40;;;0.90;;
6374;SDS011;35400;45.472;-122.822;2023-03-23T16:28:39;3.30;;;1.20;;
6374;SDS011;35400;45.472;-122.822;2023-03-23T16:31:06;2.67;;;1.07;;
6374;SDS011;35400;45.472;-122.822;2023-03-23T16:33:33;2.47;;;1.00;;
6374;SDS011;35400;45.472;-122.822;2023-03-23T16:36:00;1.73;;;0.93;;
6374;SDS011;35400;45.472;-122.822;2023-03-23T16:38:28;1.90;;;1.00;;
6374;SDS011;35400;45.472;-122.822;2023-03-23T16:40:54;0.80;;;0.80;;
6374;SDS011;35400;45.472;-122.822;2023-03-23T16:43:21;0.57;;;0.57;;
6374;SDS011;35400;45.472;-122.822;2023-03-23T16:45:48;2.90;;;0.90;;
6374;SDS011;35400;45.472;-122.822;2023-03-23T16:48:16;2.23;;;0.80;;
6374;SDS011;35400;45.472;-122.822;2023-03-23T16:50:43;2.43;;;0.93;;
6374;SDS011;35400;45.472;-122.822;2023-03-23T16:53:10;4.70;;;0.73;;
6374;SDS011;35400;45.472;-122.822;2023-03-23T16:55:37;5.10;;;2.97;;
6374;SDS011;35400;45.472;-122.822;2023-03-23T16:58:05;1.70;;;1.07;;
6374;SDS011;35400;45.472;-122.822;2023-03-23T17:00:32;3.33;;;0.80;;
6374;SDS011;35400;45.472;-122.822;2023-03-23T17:02:59;1.00;;;0.73;;
6374;SDS011;35400;45.472;-122.822;2023-03-23T17:05:26;3.03;;;2.07;;
6374;SDS011;35400;45.472;-122.822;2023-03-23T17:07:54;1.77;;;1.23;;
6374;SDS011;35400;45.472;-122.822;2023-03-23T17:10:22;2.70;;;0.80;;
6374;SDS011;35400;45.472;-122.822;2023-03-23T17:12:52;2.67;;;1.13;;
6374;SDS011;35400;45.472;-122.822;2023-03-23T17:15:20;1.20;;;0.80;;
6374;SDS011;35400;45.472;-122.822;2023-03-23T17:17:49;1.17;;;0.67;;
6374;SDS011;35400;45.472;-122.822;2023-03-23T17:20:16;2.10;;;0.80;;